Time;durP1;ratioP1;P1;durP2;ratioP2;P2;SDS_P1;SDS_P2;PMS_P1;PMS_P2;Temp;Humidity;BMP_temperature;BMP_pressure;BME280_temperature;BME280_humidity;BME280_pressure;Samples;Min_cycle;Max_cycle;Signal;HPM_P1;HPM_P2
2023/06/15 06:52:13;;;;;;;7.20;5.83;;;23.70;93.30;;;;;;4947490;29;20485;-80
2023/06/15 06:54:40;;;;;;;11.10;5.20;;;23.70;93.10;;;;;;4955112;29;20472;-85
2023/06/15 06:57:07;;;;;;;4.70;4.30;;;23.80;93.00;;;;;;4955222;29;20450;-87
2023/06/15 06:59:34;;;;;;;7.90;4.70;;;23.80;93.00;;;;;;4955543;29;20440;-85
2023/06/15 07:02:00;;;;;;;8.37;4.97;;;23.80;92.90;;;;;;4955405;29;20450;-86
2023/06/15 07:04:27;;;;;;;5.73;4.33;;;23.80;92.80;;;;;;4955586;28;20477;-88
2023/06/15 07:06:54;;;;;;;7.03;4.33;;;23.90;92.90;;;;;;4955637;29;20452;-88
2023/06/15 07:09:22;;;;;;;13.20;5.00;;;23.90;92.80;;;;;;4955315;29;21054;-89
2023/06/15 07:11:49;;;;;;;8.93;4.03;;;23.90;92.70;;;;;;4955204;29;20477;-89
2023/06/15 07:14:16;;;;;;;8.80;4.10;;;24.00;93.00;;;;;;4955562;28;20466;-87
2023/06/15 07:16:42;;;;;;;7.03;3.83;;;24.10;92.90;;;;;;4955476;28;20461;-88
2023/06/15 07:19:09;;;;;;;7.17;4.30;;;24.00;92.80;;;;;;4955250;28;20454;-88
2023/06/15 07:21:36;;;;;;;5.23;4.10;;;24.10;92.90;;;;;;4954637;29;20523;-89
2023/06/15 07:24:03;;;;;;;8.17;4.40;;;24.00;92.80;;;;;;4954978;29;20476;-89
2023/06/15 07:26:31;;;;;;;4.57;4.17;;;24.00;92.80;;;;;;4955588;29;20454;-87
2023/06/15 07:28:58;;;;;;;8.00;4.67;;;24.00;92.70;;;;;;4955220;29;20981;-86
2023/06/15 07:31:24;;;;;;;4.57;4.10;;;24.00;92.70;;;;;;4955215;29;20896;-86
2023/06/15 07:33:53;;;;;;;5.60;4.77;;;24.10;92.60;;;;;;4954598;28;20466;-85
2023/06/15 07:36:20;;;;;;;6.43;4.47;;;24.20;92.80;;;;;;4954895;29;20938;-88
2023/06/15 07:38:47;;;;;;;5.97;4.03;;;24.10;92.70;;;;;;4954948;29;20447;-90
2023/06/15 07:41:14;;;;;;;5.40;3.67;;;24.20;92.80;;;;;;4954900;29;20455;-90
2023/06/15 07:43:42;;;;;;;4.57;3.67;;;24.10;92.50;;;;;;4955153;29;20932;-90
2023/06/15 07:46:09;;;;;;;5.23;4.17;;;24.10;92.40;;;;;;4958794;29;20438;-89
2023/06/15 07:48:35;;;;;;;5.73;3.80;;;24.10;92.40;;;;;;4959912;29;20453;-88
2023/06/15 07:51:02;;;;;;;5.03;4.37;;;24.10;92.40;;;;;;4958965;29;20886;-91
2023/06/15 07:53:29;;;;;;;4.57;4.10;;;24.30;92.50;;;;;;4956098;28;20485;-93
2023/06/15 07:55:56;;;;;;;5.50;4.23;;;24.30;92.70;;;;;;4956209;29;20451;-89
2023/06/15 07:58:23;;;;;;;4.50;3.87;;;24.10;92.60;;;;;;4955929;28;20435;-90
2023/06/15 08:00:51;;;;;;;6.83;3.90;;;24.10;92.40;;;;;;4959388;29;20463;-87
2023/06/15 08:03:18;;;;;;;4.90;4.10;;;24.10;92.60;;;;;;4961388;28;20475;-96
2023/06/15 08:05:45;;;;;;;4.40;4.00;;;24.20;92.50;;;;;;4960420;29;20490;-92
2023/06/15 08:08:12;;;;;;;4.03;3.27;;;24.20;92.50;;;;;;4958512;29;20440;-84
2023/06/15 08:10:39;;;;;;;3.97;3.57;;;24.20;92.70;;;;;;4958891;29;20501;-84
2023/06/15 08:15:33;;;;;;;4.00;3.60;;;24.20;92.90;;;;;;5001686;23;20539;-93
2023/06/15 08:18:17;;;;;;;7.97;4.70;;;24.20;93.10;;;;;;4956782;28;20188;-95
2023/06/15 08:20:44;;;;;;;4.00;3.57;;;24.40;93.20;;;;;;4939444;29;20780;-90
2023/06/15 08:23:10;;;;;;;5.73;3.33;;;24.40;93.30;;;;;;4939377;29;20464;-89
2023/06/15 08:25:42;;;;;;;4.60;3.97;;;24.40;93.30;;;;;;4973958;23;20494;-96
2023/06/15 08:28:09;;;;;;;4.40;4.00;;;24.20;93.10;;;;;;4974811;28;20525;-89
2023/06/15 08:30:36;;;;;;;4.43;3.90;;;24.20;93.10;;;;;;4976865;28;21036;-89
2023/06/15 08:33:04;;;;;;;5.00;3.83;;;24.20;93.10;;;;;;4977196;28;20478;-85
2023/06/15 08:35:31;;;;;;;4.93;4.43;;;24.20;93.00;;;;;;4976939;28;20445;-84
2023/06/15 08:37:58;;;;;;;4.40;4.00;;;24.20;93.00;;;;;;4976967;28;20666;-88
2023/06/15 08:40:25;;;;;;;4.10;3.60;;;24.20;93.00;;;;;;4977010;28;20455;-88
2023/06/15 08:42:52;;;;;;;7.17;3.70;;;24.20;93.20;;;;;;4976727;28;20438;-85
2023/06/15 08:45:22;;;;;;;4.00;3.60;;;24.50;93.20;;;;;;4975067;28;20618;-88
2023/06/15 08:47:49;;;;;;;13.60;3.60;;;24.20;93.30;;;;;;4977320;28;20461;-89
2023/06/15 08:50:18;;;;;;;6.63;3.80;;;24.40;93.10;;;;;;4977097;28;20493;-89
2023/06/15 08:52:46;;;;;;;6.33;3.67;;;24.30;93.30;;;;;;4976254;28;20470;-86
2023/06/15 08:57:55;;;;;;;6.23;3.30;;;24.30;93.40;;;;;;4967295;28;20458;-91
2023/06/15 09:00:22;;;;;;;3.97;2.97;;;24.30;93.20;;;;;;4977694;28;20442;-85
2023/06/15 09:02:53;;;;;;;4.00;3.40;;;24.30;92.90;;;;;;4976966;28;20982;-86
2023/06/15 09:05:21;;;;;;;5.10;3.70;;;24.50;93.10;;;;;;4976774;28;20960;-86
2023/06/15 09:07:47;;;;;;;4.37;3.60;;;24.30;92.90;;;;;;4976927;28;20967;-88
2023/06/15 09:10:15;;;;;;;4.33;3.50;;;24.20;93.00;;;;;;4981862;28;20815;-85
2023/06/15 09:12:43;;;;;;;4.97;3.87;;;24.20;93.00;;;;;;4976816;28;20446;-85
2023/06/15 09:15:12;;;;;;;3.70;3.40;;;24.50;93.00;;;;;;4976653;28;20456;-88
2023/06/15 09:17:39;;;;;;;4.30;3.60;;;24.30;93.00;;;;;;4976687;28;20529;-85
2023/06/15 09:20:08;;;;;;;7.73;3.37;;;24.30;93.00;;;;;;4976383;28;20451;-89
2023/06/15 09:22:43;;;;;;;7.63;3.47;;;24.30;92.90;;;;;;4970040;28;20469;-86
2023/06/15 09:25:14;;;;;;;3.50;3.20;;;24.30;93.00;;;;;;4976461;28;20450;-89
2023/06/15 09:27:42;;;;;;;6.53;3.63;;;24.30;93.00;;;;;;4976161;28;20480;-93
2023/06/15 09:30:13;;;;;;;3.93;3.63;;;24.30;93.10;;;;;;4976150;28;20490;-85
2023/06/15 09:32:41;;;;;;;4.80;3.20;;;24.30;93.10;;;;;;4976115;28;20521;-86
2023/06/15 09:35:08;;;;;;;5.07;3.87;;;24.30;93.00;;;;;;4975770;28;20442;-83
2023/06/15 09:37:37;;;;;;;5.70;3.10;;;24.30;93.10;;;;;;4975591;28;20480;-83
2023/06/15 09:40:12;;;;;;;5.70;3.90;;;24.30;93.20;;;;;;4975440;28;20448;-86
2023/06/15 09:42:41;;;;;;;3.90;3.40;;;24.30;92.80;;;;;;4976206;28;20495;-84
2023/06/15 09:45:09;;;;;;;5.20;3.10;;;24.30;93.10;;;;;;4975910;28;20954;-88
2023/06/15 09:47:38;;;;;;;4.97;3.20;;;24.30;93.00;;;;;;4975708;28;20445;-84
2023/06/15 09:50:11;;;;;;;5.77;3.63;;;24.50;93.20;;;;;;4976476;28;20536;-85
2023/06/15 09:52:43;;;;;;;3.73;3.27;;;24.30;93.20;;;;;;4975298;28;20836;-83
2023/06/15 09:55:13;;;;;;;4.30;3.90;;;24.30;93.00;;;;;;4975356;28;20453;-85
2023/06/15 09:57:41;;;;;;;6.60;3.00;;;24.40;93.30;;;;;;4976199;28;20451;-84
2023/06/15 10:00:09;;;;;;;3.90;3.30;;;24.30;93.00;;;;;;4974639;28;20458;-83
2023/06/15 10:02:39;;;;;;;3.50;3.20;;;24.30;93.20;;;;;;4974772;28;20519;-83
2023/06/15 10:05:12;;;;;;;6.07;3.60;;;24.30;93.20;;;;;;4974606;28;20453;-82
2023/06/15 10:07:40;;;;;;;7.00;3.47;;;24.40;93.40;;;;;;4975544;28;20500;-81
2023/06/15 10:10:09;;;;;;;4.30;3.70;;;24.30;93.40;;;;;;4976543;28;20485;-82
2023/06/15 10:12:43;;;;;;;3.60;3.30;;;24.40;93.40;;;;;;4976266;28;20961;-82
2023/06/15 10:15:12;;;;;;;6.50;3.70;;;24.40;93.50;;;;;;4975989;28;20777;-81
2023/06/15 10:17:41;;;;;;;5.30;3.50;;;24.40;93.60;;;;;;4976211;28;20490;-83
2023/06/15 10:20:16;;;;;;;4.53;3.63;;;24.40;93.60;;;;;;4977291;28;20457;-84
2023/06/15 10:22:49;;;;;;;3.93;3.63;;;24.40;93.70;;;;;;4986445;28;20439;-82
2023/06/15 10:25:16;;;;;;;3.00;2.80;;;24.40;93.50;;;;;;4995495;28;20462;-81
2023/06/15 10:27:45;;;;;;;4.20;3.80;;;24.40;93.40;;;;;;4995224;28;20474;-82
2023/06/15 10:30:20;;;;;;;4.13;3.67;;;24.40;93.70;;;;;;4994940;28;20482;-83
2023/06/15 10:32:52;;;;;;;8.37;3.63;;;24.40;93.60;;;;;;4994300;28;21050;-81
2023/06/15 10:35:26;;;;;;;4.70;3.60;;;24.40;93.70;;;;;;4994303;28;20445;-83
2023/06/15 10:38:02;;;;;;;5.33;2.90;;;24.40;93.80;;;;;;4994308;28;20817;-83
2023/06/15 10:40:33;;;;;;;4.63;3.07;;;24.40;93.90;;;;;;4987517;28;20983;-82
2023/06/15 10:43:03;;;;;;;4.97;3.93;;;24.40;93.90;;;;;;4974939;28;20531;-82
2023/06/15 10:45:31;;;;;;;3.97;3.20;;;24.40;94.10;;;;;;4975601;28;20793;-82
2023/06/15 10:47:59;;;;;;;6.33;3.13;;;24.40;94.60;;;;;;4969730;28;20918;-82
2023/06/15 10:50:27;;;;;;;7.63;3.13;;;24.40;94.70;;;;;;4955868;29;20574;-81
2023/06/15 10:52:54;;;;;;;3.67;3.10;;;24.50;94.80;;;;;;4955933;29;20459;-80
2023/06/15 10:55:23;;;;;;;5.33;3.43;;;24.50;94.90;;;;;;4955688;29;20456;-82
2023/06/15 10:58:17;;;;;;;4.00;3.60;;;24.50;94.50;;;;;;4960144;28;20450;-87
2023/06/15 11:00:45;;;;;;;8.20;3.17;;;24.50;94.40;;;;;;4966768;28;20459;-86
2023/06/15 11:03:26;;;;;;;5.43;3.53;;;24.40;94.50;;;;;;4975095;28;20979;-84
2023/06/15 11:06:08;;;;;;;6.50;2.97;;;24.50;95.00;;;;;;4971371;28;21010;-95
2023/06/15 11:28:34;;;;;;;4.83;3.17;;;24.60;95.00;;;;;;4897395;29;20447;-89
2023/06/15 11:31:06;;;;;;;5.00;3.17;;;24.60;94.90;;;;;;4897141;29;20498;-92
2023/06/15 11:33:36;;;;;;;3.53;3.23;;;24.60;94.90;;;;;;4900793;29;20471;-96
2023/06/15 11:36:04;;;;;;;3.33;3.00;;;24.60;94.80;;;;;;4905066;29;20554;-90
2023/06/15 11:38:33;;;;;;;4.33;3.20;;;24.80;95.10;;;;;;4904122;29;20485;-88
2023/06/15 11:41:04;;;;;;;2.70;2.50;;;24.60;94.70;;;;;;4899949;29;20458;-91
2023/06/15 11:43:36;;;;;;;3.67;3.17;;;24.70;94.80;;;;;;4936707;29;20968;-89
2023/06/15 11:46:04;;;;;;;6.23;3.10;;;24.70;94.60;;;;;;4940691;29;20508;-89
2023/06/15 11:48:31;;;;;;;4.53;3.37;;;24.70;94.50;;;;;;4940577;29;20466;-90
2023/06/15 11:50:58;;;;;;;3.40;3.10;;;24.70;94.70;;;;;;4940372;29;20583;-88
2023/06/15 11:53:25;;;;;;;3.30;3.00;;;24.70;94.50;;;;;;4939957;29;20445;-86
2023/06/15 11:55:53;;;;;;;3.23;2.93;;;24.70;94.70;;;;;;4940698;29;20449;-88
2023/06/15 11:58:22;;;;;;;4.87;3.20;;;24.70;94.50;;;;;;4940102;29;20931;-85
2023/06/15 12:00:51;;;;;;;3.17;2.90;;;24.70;94.60;;;;;;4947490;29;20467;-96
2023/06/15 12:03:19;;;;;;;5.03;3.10;;;24.50;94.40;;;;;;4955187;29;20825;-91
2023/06/15 12:05:57;;;;;;;4.27;3.13;;;24.90;94.60;;;;;;4942592;29;20531;-93
2023/06/15 12:08:24;;;;;;;3.73;3.10;;;24.70;94.60;;;;;;4941138;29;20802;-93
2023/06/15 12:10:52;;;;;;;7.13;2.80;;;24.70;94.60;;;;;;4942052;29;20494;-94
2023/06/15 12:13:20;;;;;;;3.30;3.00;;;24.70;94.30;;;;;;4940252;28;20457;-86
2023/06/15 12:15:48;;;;;;;3.90;3.33;;;24.70;94.30;;;;;;4941622;29;20437;-94
2023/06/15 12:18:17;;;;;;;3.50;2.80;;;24.70;94.30;;;;;;4942070;29;20438;-93
2023/06/15 12:20:45;;;;;;;3.30;3.00;;;24.70;94.10;;;;;;4938999;29;20461;-86
2023/06/15 12:23:12;;;;;;;3.37;3.07;;;24.70;94.10;;;;;;4939288;29;20449;-87
2023/06/15 12:25:43;;;;;;;3.17;2.70;;;24.60;94.10;;;;;;4939250;29;20450;-88
2023/06/15 12:28:17;;;;;;;4.13;2.97;;;24.60;94.00;;;;;;4972604;28;20971;-88
2023/06/15 12:30:47;;;;;;;8.27;4.57;;;24.70;94.40;;;;;;4976049;28;21013;-87
2023/06/15 12:33:30;;;;;;;5.17;3.83;;;24.60;94.40;;;;;;4976325;28;20476;-87
2023/06/15 12:35:58;;;;;;;5.27;3.30;;;24.70;94.40;;;;;;4976646;28;20526;-89
2023/06/15 12:38:25;;;;;;;8.63;3.97;;;24.80;94.50;;;;;;4965987;28;20483;-89
2023/06/15 12:40:53;;;;;;;5.63;3.10;;;24.70;94.30;;;;;;4976287;28;20448;-88
2023/06/15 12:43:20;;;;;;;8.40;2.83;;;24.70;94.30;;;;;;4976475;28;20861;-89
2023/06/15 12:45:47;;;;;;;4.27;3.40;;;24.70;94.20;;;;;;4975413;28;20452;-89
2023/06/15 12:48:14;;;;;;;7.77;3.83;;;24.70;94.10;;;;;;4976065;28;20459;-88
2023/06/15 12:50:42;;;;;;;3.60;3.23;;;24.70;94.10;;;;;;4976186;28;20483;-88
2023/06/15 12:53:09;;;;;;;4.37;3.33;;;24.90;94.20;;;;;;4976170;28;20800;-89
2023/06/15 12:55:36;;;;;;;4.80;3.27;;;24.80;94.10;;;;;;4976229;28;20796;-89
2023/06/15 12:58:04;;;;;;;4.07;2.77;;;24.80;94.00;;;;;;4976031;28;20492;-88
2023/06/15 13:00:31;;;;;;;4.10;3.60;;;24.80;94.10;;;;;;4976222;28;20496;-88
2023/06/15 13:03:00;;;;;;;4.77;3.30;;;25.00;94.10;;;;;;4975718;28;20471;-89
2023/06/15 13:05:28;;;;;;;5.13;2.87;;;24.80;94.00;;;;;;4976216;28;20470;-88
2023/06/15 13:07:56;;;;;;;4.33;3.13;;;24.90;94.00;;;;;;4975682;28;20505;-88
2023/06/15 13:10:23;;;;;;;4.00;3.60;;;24.90;94.00;;;;;;4976088;28;20450;-89
2023/06/15 13:12:50;;;;;;;4.03;3.13;;;24.90;94.00;;;;;;4975546;28;20974;-88
2023/06/15 13:15:17;;;;;;;3.43;2.77;;;24.90;94.20;;;;;;4975956;28;20439;-89
2023/06/15 13:17:44;;;;;;;3.77;3.33;;;24.90;94.20;;;;;;4975671;28;20888;-92
2023/06/15 13:20:14;;;;;;;5.10;3.60;;;25.00;94.20;;;;;;4975308;28;20458;-88
2023/06/15 13:22:41;;;;;;;5.80;3.13;;;25.00;94.00;;;;;;4975660;28;20497;-88
2023/06/15 13:25:10;;;;;;;4.03;2.90;;;25.00;94.20;;;;;;4975177;28;20497;-88
2023/06/15 13:27:38;;;;;;;3.00;2.60;;;25.00;94.00;;;;;;4938819;28;1079001;-89
2023/06/15 13:30:07;;;;;;;6.67;3.33;;;25.00;94.10;;;;;;4976131;28;20206;-89
2023/06/15 13:32:35;;;;;;;3.10;2.80;;;25.00;94.00;;;;;;4975945;28;21012;-88
2023/06/15 13:35:02;;;;;;;3.80;3.40;;;25.00;93.90;;;;;;4976396;28;20456;-90
2023/06/15 13:37:29;;;;;;;7.43;3.33;;;25.00;93.90;;;;;;4976277;28;20451;-88
2023/06/15 13:39:55;;;;;;;4.67;3.10;;;25.10;93.90;;;;;;4975963;28;20458;-88
2023/06/15 13:42:24;;;;;;;3.13;2.83;;;25.10;94.10;;;;;;4976138;28;20456;-88
2023/06/15 13:44:50;;;;;;;4.67;3.10;;;25.10;94.00;;;;;;4975962;28;20448;-88
2023/06/15 13:47:19;;;;;;;4.43;3.33;;;25.10;93.70;;;;;;4975885;28;20453;-88
2023/06/15 13:49:47;;;;;;;3.20;2.90;;;25.10;94.00;;;;;;4976042;28;20538;-88
2023/06/15 13:52:14;;;;;;;3.83;2.80;;;25.10;93.80;;;;;;4975597;28;20550;-88
2023/06/15 13:54:40;;;;;;;3.50;3.20;;;25.10;93.60;;;;;;4975872;28;20912;-88
2023/06/15 13:57:08;;;;;;;4.43;2.70;;;25.30;93.80;;;;;;4975930;28;20448;-88
2023/06/15 13:59:36;;;;;;;4.50;3.03;;;25.10;93.80;;;;;;4976018;28;20533;-88
2023/06/15 14:02:03;;;;;;;3.10;2.70;;;25.10;93.70;;;;;;4975832;28;20459;-88
2023/06/15 14:04:31;;;;;;;3.63;2.70;;;25.10;93.80;;;;;;4976013;28;20455;-88
2023/06/15 14:06:59;;;;;;;3.43;3.13;;;25.10;93.80;;;;;;4975966;28;20460;-88
2023/06/15 14:09:27;;;;;;;3.10;2.80;;;25.10;93.70;;;;;;4975810;28;20856;-87
2023/06/15 14:11:57;;;;;;;3.53;2.50;;;25.30;93.70;;;;;;4975832;28;20488;-88
2023/06/15 14:14:25;;;;;;;3.17;2.80;;;25.10;93.60;;;;;;4975547;28;20432;-87
2023/06/15 14:16:54;;;;;;;4.33;2.50;;;25.20;93.80;;;;;;4975744;28;20458;-88
2023/06/15 14:19:22;;;;;;;4.87;3.27;;;25.20;93.80;;;;;;4975205;28;20430;-88
2023/06/15 14:21:49;;;;;;;3.10;2.90;;;25.20;93.70;;;;;;4975196;28;20451;-88
2023/06/15 14:24:16;;;;;;;2.70;2.50;;;25.20;93.80;;;;;;4975552;28;20455;-87
2023/06/15 14:26:42;;;;;;;2.60;2.40;;;25.20;93.80;;;;;;4974976;28;20999;-88
2023/06/15 14:29:12;;;;;;;4.37;3.10;;;25.20;93.80;;;;;;4975447;28;20824;-87
2023/06/15 14:31:41;;;;;;;3.30;2.90;;;25.20;93.90;;;;;;4975597;28;20500;-87
2023/06/15 14:34:09;;;;;;;3.10;2.57;;;25.20;94.00;;;;;;4975637;28;20480;-88
2023/06/15 14:36:36;;;;;;;2.67;2.20;;;25.30;93.80;;;;;;4975129;28;20844;-88
2023/06/15 14:39:03;;;;;;;2.63;2.43;;;25.20;93.80;;;;;;4975083;28;20459;-89
2023/06/15 14:41:30;;;;;;;2.87;2.63;;;25.20;93.90;;;;;;4974981;28;20939;-87
2023/06/15 14:43:56;;;;;;;3.03;2.63;;;25.20;93.80;;;;;;4975210;28;20964;-88
2023/06/15 14:46:23;;;;;;;3.10;2.80;;;25.30;94.00;;;;;;4974870;28;20445;-87
2023/06/15 14:48:50;;;;;;;2.60;2.30;;;25.30;93.80;;;;;;4975067;28;20452;-88
2023/06/15 14:51:18;;;;;;;4.80;3.13;;;25.20;94.20;;;;;;4974772;28;20486;-88
2023/06/15 14:53:46;;;;;;;3.47;3.13;;;25.20;93.90;;;;;;4974794;28;20448;-88
2023/06/15 14:56:13;;;;;;;3.00;2.13;;;25.30;94.00;;;;;;4974710;28;20453;-87
2023/06/15 14:58:40;;;;;;;3.57;3.13;;;25.20;94.00;;;;;;4974817;28;20452;-89
2023/06/15 15:01:40;;;;;;;2.70;2.50;;;25.20;94.10;;;;;;4981204;28;20449;-96
2023/06/15 15:04:07;;;;;;;3.20;2.53;;;25.20;94.10;;;;;;4974611;28;20444;-88
2023/06/15 15:06:35;;;;;;;2.67;2.20;;;25.10;94.00;;;;;;4974509;28;20451;-84
2023/06/15 15:09:02;;;;;;;2.70;2.50;;;25.20;94.00;;;;;;4974072;28;20498;-87
2023/06/15 15:11:29;;;;;;;5.20;2.67;;;25.10;93.80;;;;;;4974223;28;20486;-88
2023/06/15 15:13:57;;;;;;;2.70;2.50;;;25.30;94.00;;;;;;4974405;28;20542;-87
2023/06/15 15:16:25;;;;;;;3.63;2.37;;;25.10;94.00;;;;;;4974437;28;20448;-87
2023/06/15 15:18:52;;;;;;;2.60;2.20;;;25.20;94.00;;;;;;4974418;28;20456;-88
2023/06/15 15:21:18;;;;;;;4.93;3.07;;;25.20;94.20;;;;;;4973906;28;20448;-87
2023/06/15 15:23:47;;;;;;;3.00;2.63;;;25.20;94.20;;;;;;4974391;28;20440;-87
2023/06/15 15:26:13;;;;;;;4.10;2.40;;;25.20;94.10;;;;;;4973584;28;20448;-88
2023/06/15 15:28:40;;;;;;;2.90;2.60;;;25.20;93.90;;;;;;4973192;28;21034;-86
2023/06/15 15:31:08;;;;;;;3.10;2.00;;;25.20;94.10;;;;;;4972906;28;20448;-87
2023/06/15 15:33:34;;;;;;;2.87;2.10;;;25.20;94.10;;;;;;4972893;28;20450;-87
2023/06/15 15:36:01;;;;;;;2.57;2.37;;;25.20;94.00;;;;;;4973453;28;20445;-87
2023/06/15 15:38:28;;;;;;;5.63;2.40;;;25.40;94.00;;;;;;4974072;28;20452;-87
2023/06/15 15:40:56;;;;;;;2.83;2.60;;;25.20;94.00;;;;;;4974149;28;20452;-87
2023/06/15 15:43:23;;;;;;;3.00;2.63;;;25.20;94.20;;;;;;4974603;28;20445;-87
2023/06/15 15:45:50;;;;;;;2.60;2.40;;;25.20;93.90;;;;;;4974576;28;20714;-87
2023/06/15 15:48:18;;;;;;;3.60;2.50;;;25.20;94.10;;;;;;4974664;28;20809;-87
2023/06/15 15:50:46;;;;;;;3.93;2.70;;;25.20;94.10;;;;;;4974650;28;20438;-86
2023/06/15 15:53:13;;;;;;;2.67;2.47;;;25.20;94.00;;;;;;4974196;28;20995;-86
2023/06/15 15:55:46;;;;;;;2.47;2.27;;;25.40;94.20;;;;;;4974271;28;20795;-86
2023/06/15 15:58:14;;;;;;;2.70;2.20;;;25.20;94.20;;;;;;4974308;28;20929;-86
2023/06/15 16:00:41;;;;;;;2.50;2.30;;;25.20;94.10;;;;;;4974286;28;20452;-88
2023/06/15 16:03:08;;;;;;;2.80;2.60;;;25.20;94.10;;;;;;4974328;28;20468;-88
2023/06/15 16:05:34;;;;;;;3.37;2.83;;;25.20;94.10;;;;;;4974373;28;20471;-88
2023/06/15 16:08:01;;;;;;;1.90;1.77;;;25.20;94.00;;;;;;4984190;28;20440;-88
2023/06/15 16:10:28;;;;;;;2.73;2.30;;;25.40;93.90;;;;;;4985028;28;20440;-88
2023/06/15 16:12:55;;;;;;;2.53;2.33;;;25.40;93.60;;;;;;4984094;28;20497;-88
2023/06/15 16:15:23;;;;;;;2.97;2.13;;;25.40;93.60;;;;;;4974192;28;20947;-88
2023/06/15 16:17:50;;;;;;;2.57;2.20;;;25.20;93.20;;;;;;4974140;28;20445;-88
2023/06/15 16:20:17;;;;;;;2.30;2.00;;;25.20;93.00;;;;;;4975625;28;20451;-88
2023/06/15 16:22:44;;;;;;;3.37;2.70;;;25.20;92.80;;;;;;4977628;28;20950;-88
2023/06/15 16:25:12;;;;;;;3.43;2.30;;;25.40;92.80;;;;;;4977755;28;20466;-88
2023/06/15 16:27:39;;;;;;;3.00;2.80;;;25.20;92.70;;;;;;4977342;28;20510;-88
2023/06/15 16:30:07;;;;;;;2.40;2.20;;;25.20;92.70;;;;;;4977452;28;20801;-88
2023/06/15 16:32:35;;;;;;;2.73;2.53;;;25.20;92.70;;;;;;4976782;28;20999;-88
2023/06/15 16:35:02;;;;;;;3.57;2.43;;;25.30;93.00;;;;;;4977534;28;20447;-88
2023/06/15 16:37:29;;;;;;;2.93;2.63;;;25.20;92.60;;;;;;4977434;28;20451;-88
2023/06/15 16:39:59;;;;;;;3.23;2.60;;;25.30;92.70;;;;;;4977073;28;20534;-88
2023/06/15 16:42:28;;;;;;;2.30;2.10;;;25.20;92.70;;;;;;4977125;28;20451;-88
2023/06/15 16:44:57;;;;;;;2.63;2.43;;;25.20;92.50;;;;;;4977105;28;20454;-87
2023/06/15 16:47:24;;;;;;;2.53;2.20;;;25.20;92.60;;;;;;4977255;28;20443;-91
2023/06/15 16:49:52;;;;;;;2.40;2.13;;;25.20;92.40;;;;;;4977078;28;21000;-88
2023/06/15 16:52:20;;;;;;;2.37;2.17;;;25.20;92.40;;;;;;4977099;28;20490;-88
2023/06/15 16:54:48;;;;;;;2.70;2.20;;;25.40;92.50;;;;;;4977077;28;20451;-88
2023/06/15 16:57:18;;;;;;;2.67;2.43;;;25.20;92.30;;;;;;4976890;28;20441;-93
2023/06/15 16:59:45;;;;;;;2.70;2.40;;;25.20;92.20;;;;;;4976756;28;20765;-89
2023/06/15 17:02:13;;;;;;;2.70;2.40;;;25.20;92.40;;;;;;4976708;28;20468;-88
2023/06/15 17:04:40;;;;;;;5.40;2.13;;;25.20;92.30;;;;;;4976985;28;20455;-88
2023/06/15 17:07:10;;;;;;;2.43;2.23;;;25.20;92.30;;;;;;4976792;28;20438;-88
2023/06/15 17:09:40;;;;;;;2.50;2.30;;;25.20;92.30;;;;;;4977010;28;20462;-87
2023/06/15 17:12:08;;;;;;;2.50;2.30;;;25.20;92.40;;;;;;4976791;28;20527;-88
2023/06/15 17:14:35;;;;;;;3.30;2.60;;;25.20;92.30;;;;;;4976983;28;20459;-88
2023/06/15 17:17:01;;;;;;;2.10;2.00;;;25.30;92.40;;;;;;4976771;28;20478;-88
2023/06/15 17:19:28;;;;;;;2.67;2.47;;;25.20;92.30;;;;;;4976605;28;20453;-88
2023/06/15 17:21:55;;;;;;;2.13;1.93;;;25.20;92.20;;;;;;4976408;28;20461;-85
2023/06/15 17:24:25;;;;;;;3.70;2.70;;;25.20;92.40;;;;;;4976688;28;20447;-85
2023/06/15 17:26:51;;;;;;;1.93;1.73;;;25.20;92.10;;;;;;4976092;28;20485;-85
2023/06/15 17:29:18;;;;;;;2.30;1.90;;;25.20;92.10;;;;;;4976648;28;20444;-86
2023/06/15 17:31:46;;;;;;;3.27;2.30;;;25.20;92.00;;;;;;4976074;28;20468;-85
2023/06/15 17:34:13;;;;;;;2.40;2.20;;;25.20;92.20;;;;;;4976436;28;20445;-85
2023/06/15 17:36:39;;;;;;;3.47;2.50;;;25.10;91.90;;;;;;4976326;28;20440;-85
2023/06/15 17:39:06;;;;;;;4.43;2.40;;;25.10;91.70;;;;;;4976117;28;20440;-85
2023/06/15 17:41:34;;;;;;;7.90;3.00;;;25.10;92.00;;;;;;4976119;28;20779;-85
2023/06/15 17:44:01;;;;;;;6.07;2.90;;;25.10;92.20;;;;;;4976261;28;20475;-85
2023/06/15 17:46:28;;;;;;;5.93;2.33;;;25.10;92.00;;;;;;4975870;28;20447;-85
2023/06/15 17:48:55;;;;;;;3.67;3.10;;;25.00;92.00;;;;;;4976298;28;20441;-85
2023/06/15 17:51:21;;;;;;;3.47;2.70;;;25.20;92.30;;;;;;4976036;28;20444;-85
2023/06/15 17:53:48;;;;;;;3.67;2.23;;;25.00;92.20;;;;;;4976112;28;20827;-85
2023/06/15 17:56:15;;;;;;;2.70;2.50;;;25.10;92.20;;;;;;4975861;28;20938;-85
2023/06/15 17:58:44;;;;;;;4.03;2.27;;;25.00;92.10;;;;;;4975757;28;20510;-85
2023/06/15 18:01:13;;;;;;;3.97;2.90;;;25.00;92.20;;;;;;4975612;28;20450;-86
2023/06/15 18:03:40;;;;;;;3.47;2.30;;;25.00;92.00;;;;;;4975941;28;20451;-85
2023/06/15 18:06:07;;;;;;;4.23;2.63;;;25.20;92.20;;;;;;4975805;28;20429;-85
2023/06/15 18:08:34;;;;;;;4.03;2.63;;;25.00;92.20;;;;;;4975614;28;20799;-85
2023/06/15 18:11:00;;;;;;;2.67;2.47;;;25.00;92.00;;;;;;4975459;28;20508;-85
2023/06/15 18:13:27;;;;;;;5.90;3.00;;;25.00;92.00;;;;;;4973481;28;20469;-84
2023/06/15 18:15:56;;;;;;;4.03;2.80;;;25.00;92.40;;;;;;4971184;28;20457;-89
2023/06/15 18:18:22;;;;;;;3.50;2.33;;;25.00;92.50;;;;;;4975004;28;20526;-89
2023/06/15 18:20:49;;;;;;;5.73;2.70;;;25.20;92.40;;;;;;4960323;28;20449;-89
2023/06/15 18:23:16;;;;;;;3.97;2.63;;;25.00;92.30;;;;;;4956003;28;20452;-90
2023/06/15 18:25:43;;;;;;;5.00;2.70;;;25.20;92.20;;;;;;4959446;28;20458;-89
2023/06/15 18:28:10;;;;;;;5.53;2.37;;;25.20;92.30;;;;;;4975100;28;20480;-85
2023/06/15 18:30:36;;;;;;;4.83;2.53;;;25.10;92.20;;;;;;4974709;28;20445;-85
2023/06/15 18:36:27;;;;;;;3.13;2.53;;;25.00;92.40;;;;;;4967924;28;20472;-88
2023/06/15 18:38:54;;;;;;;5.37;2.60;;;25.00;92.30;;;;;;4975382;28;20456;-89
2023/06/15 18:41:20;;;;;;;3.30;2.60;;;25.00;92.20;;;;;;4975153;28;20441;-89
2023/06/15 18:43:48;;;;;;;3.13;2.83;;;25.00;92.30;;;;;;4976281;28;20546;-89
2023/06/15 18:46:18;;;;;;;3.70;2.63;;;25.10;92.10;;;;;;4975887;28;20534;-88
2023/06/15 18:48:45;;;;;;;5.50;2.50;;;25.10;92.00;;;;;;4975706;28;20442;-88
2023/06/15 18:51:12;;;;;;;3.30;2.90;;;25.10;91.90;;;;;;4976072;28;20440;-88
2023/06/15 18:53:40;;;;;;;4.27;2.63;;;25.00;91.90;;;;;;4973822;28;21059;-89
2023/06/15 18:56:07;;;;;;;3.93;2.43;;;25.10;92.00;;;;;;4972619;28;20544;-88
2023/06/15 18:58:34;;;;;;;2.53;2.30;;;25.10;91.80;;;;;;4964042;28;20494;-89
2023/06/15 19:01:02;;;;;;;3.33;2.90;;;25.00;91.70;;;;;;4975311;28;20975;-89
2023/06/15 19:03:29;;;;;;;3.17;2.87;;;25.00;91.60;;;;;;4976389;28;20474;-88
2023/06/15 19:05:56;;;;;;;5.73;3.87;;;25.00;91.60;;;;;;4975658;28;20876;-89
2023/06/15 19:08:23;;;;;;;3.90;2.90;;;25.00;90.60;;;;;;4958158;28;20472;-88
2023/06/15 19:10:51;;;;;;;3.33;3.03;;;25.00;87.00;;;;;;4956094;29;20451;-88
2023/06/15 19:13:22;;;;;;;3.23;2.93;;;25.00;85.10;;;;;;4960305;28;20486;-88
2023/06/15 19:15:49;;;;;;;3.00;2.70;;;25.00;83.60;;;;;;4968161;28;20820;-88
2023/06/15 19:18:17;;;;;;;5.07;2.70;;;25.00;84.60;;;;;;4956262;29;20449;-90
2023/06/15 19:20:44;;;;;;;4.23;3.80;;;25.00;84.70;;;;;;4956958;28;21057;-89
2023/06/15 19:23:11;;;;;;;3.17;2.90;;;25.00;83.90;;;;;;4967779;28;20903;-88
2023/06/15 19:25:38;;;;;;;3.90;2.97;;;25.00;86.20;;;;;;4958370;28;20449;-88
2023/06/15 19:28:06;;;;;;;9.40;3.60;;;25.00;86.80;;;;;;4955032;28;20475;-88
2023/06/15 19:30:33;;;;;;;3.73;3.40;;;25.00;85.60;;;;;;4966177;28;20458;-88
2023/06/15 19:33:00;;;;;;;5.00;2.60;;;24.90;84.70;;;;;;4971555;28;20488;-88
2023/06/15 19:35:26;;;;;;;3.07;2.77;;;24.90;83.90;;;;;;4970882;28;20453;-88
2023/06/15 19:37:53;;;;;;;3.33;3.03;;;24.90;83.90;;;;;;4960901;28;20546;-88
2023/06/15 19:40:20;;;;;;;2.90;2.60;;;24.90;83.80;;;;;;4956176;29;20952;-89
2023/06/15 19:42:47;;;;;;;3.50;3.23;;;25.00;83.40;;;;;;4955056;28;20448;-88
2023/06/15 19:45:15;;;;;;;10.90;3.60;;;24.90;83.70;;;;;;4974473;28;20453;-88
2023/06/15 19:47:42;;;;;;;3.73;3.37;;;24.90;84.10;;;;;;4974364;28;20939;-88
2023/06/15 19:50:10;;;;;;;5.77;3.47;;;24.90;83.70;;;;;;4974081;28;20543;-88
2023/06/15 19:52:37;;;;;;;5.47;2.87;;;24.90;83.40;;;;;;4974089;28;20479;-89
2023/06/15 19:55:04;;;;;;;3.87;2.97;;;24.80;82.50;;;;;;4977230;28;20448;-88
2023/06/15 19:57:31;;;;;;;3.47;2.87;;;24.80;83.30;;;;;;4978220;28;20479;-88
2023/06/15 19:59:58;;;;;;;4.10;3.70;;;24.80;84.40;;;;;;4979435;28;20915;-88
2023/06/15 20:02:26;;;;;;;5.20;3.70;;;24.80;83.90;;;;;;4978767;28;20463;-90
2023/06/15 20:04:53;;;;;;;3.60;3.30;;;24.80;84.20;;;;;;4978300;28;20447;-89
2023/06/15 20:07:20;;;;;;;4.17;3.10;;;24.80;84.00;;;;;;4972792;28;20992;-87
2023/06/15 20:09:46;;;;;;;6.50;3.63;;;24.80;83.40;;;;;;4960031;28;20444;-88